createdAt,value
2022-10-12T00:01:07.152Z,5.05
2022-10-12T00:03:36.287Z,6.93
2022-10-12T00:06:06.893Z,7.97
2022-10-12T00:08:36.333Z,7.07
2022-10-12T00:11:06.188Z,7.15
2022-10-12T00:13:34.827Z,7.85
2022-10-12T00:16:04.595Z,7.47
2022-10-12T00:18:33.131Z,7.75
2022-10-12T00:21:06.159Z,6.78
2022-10-12T00:23:35.363Z,8.45
2022-10-12T00:26:07.526Z,7.72
2022-10-12T00:28:36.193Z,7.63
2022-10-12T00:31:08.908Z,6.43
2022-10-12T00:33:38.639Z,8.00
2022-10-12T00:36:15.500Z,6.60
2022-10-12T00:38:44.587Z,7.47
2022-10-12T00:41:16.439Z,7.95
2022-10-12T00:43:46.107Z,5.55
2022-10-12T00:46:19.769Z,6.45
2022-10-12T00:48:51.473Z,8.70
2022-10-12T00:51:21.456Z,7.80
2022-10-12T00:53:55.399Z,8.50
2022-10-12T00:56:29.195Z,6.53
2022-10-12T00:59:00.372Z,6.47
2022-10-12T01:01:29.080Z,8.25
2022-10-12T01:03:57.566Z,7.07
2022-10-12T01:06:25.864Z,6.15
2022-10-12T01:08:56.447Z,6.40
2022-10-12T01:11:26.211Z,7.20
2022-10-12T01:13:54.434Z,6.43
2022-10-12T01:16:33.553Z,6.40
2022-10-12T01:19:11.581Z,5.38
2022-10-12T01:21:46.657Z,7.43
2022-10-12T01:24:52.369Z,9.27
2022-10-12T01:27:32.427Z,6.22
2022-10-12T01:30:11.740Z,5.82
2022-10-12T01:32:55.305Z,6.97
2022-10-12T01:35:29.067Z,7.10
2022-10-12T01:38:08.267Z,8.07
2022-10-12T01:40:41.116Z,7.20
2022-10-12T01:43:09.784Z,6.97
2022-10-12T01:45:39.421Z,8.02
2022-10-12T01:48:08.004Z,7.38
2022-10-12T01:50:49.834Z,6.60
2022-10-12T01:53:28.012Z,8.30
2022-10-12T01:56:02.420Z,7.82
2022-10-12T01:58:52.345Z,6.65
2022-10-12T02:01:36.311Z,6.00
2022-10-12T02:04:11.601Z,5.55
2022-10-12T02:06:45.424Z,8.85
2022-10-12T02:09:19.816Z,6.10
2022-10-12T02:11:52.089Z,5.65
2022-10-12T02:14:23.052Z,6.97
2022-10-12T02:16:56.560Z,8.82
2022-10-12T02:19:27.552Z,6.32
2022-10-12T02:21:59.076Z,8.18
2022-10-12T02:24:28.533Z,7.05
2022-10-12T02:26:58.011Z,7.88
2022-10-12T02:29:30.602Z,9.52
2022-10-12T02:32:05.470Z,8.13
2022-10-12T02:34:38.361Z,7.50
2022-10-12T02:37:11.040Z,9.18
2022-10-12T02:39:45.419Z,5.43
2022-10-12T02:42:18.722Z,5.88
2022-10-12T02:44:49.002Z,5.15
2022-10-12T02:47:19.399Z,8.82
2022-10-12T02:49:49.357Z,7.90
2022-10-12T02:52:17.604Z,9.75
2022-10-12T02:54:47.029Z,5.53
2022-10-12T02:57:15.589Z,5.93
2022-10-12T02:59:43.847Z,10.38
2022-10-12T03:02:12.053Z,6.40
2022-10-12T03:04:43.165Z,6.97
2022-10-12T03:07:11.437Z,7.63
2022-10-12T03:09:39.706Z,5.63
2022-10-12T03:12:07.984Z,6.75
2022-10-12T03:14:37.547Z,7.20
2022-10-12T03:17:06.178Z,5.88
2022-10-12T03:19:34.748Z,6.90
2022-10-12T03:22:05.244Z,5.60
2022-10-12T03:24:33.647Z,5.43
2022-10-12T03:27:01.970Z,5.28
2022-10-12T03:29:30.693Z,6.43
2022-10-12T03:31:58.893Z,6.65
2022-10-12T03:34:27.173Z,7.32
2022-10-12T03:36:55.552Z,9.05
2022-10-12T03:39:25.517Z,9.02
2022-10-12T03:41:53.742Z,7.55
2022-10-12T03:44:21.930Z,11.93
2022-10-12T03:46:50.106Z,7.78
2022-10-12T03:49:18.376Z,9.52
2022-10-12T03:51:46.569Z,9.18
2022-10-12T03:54:14.945Z,10.68
2022-10-12T03:56:44.632Z,7.90
2022-10-12T03:59:12.856Z,7.45
2022-10-12T04:01:41.407Z,10.93
2022-10-12T04:04:10.999Z,5.93
2022-10-12T04:06:39.480Z,7.60
2022-10-12T04:09:07.901Z,6.93
2022-10-12T04:11:36.224Z,8.50
2022-10-12T04:14:05.835Z,6.05
2022-10-12T04:16:34.381Z,6.95
2022-10-12T04:19:03.503Z,6.15
2022-10-12T04:21:32.965Z,7.18
2022-10-12T04:24:01.181Z,8.25
2022-10-12T04:26:29.425Z,7.35
2022-10-12T04:28:57.597Z,6.55
2022-10-12T04:31:27.285Z,9.15
2022-10-12T04:33:56.939Z,6.65
2022-10-12T04:36:25.381Z,6.80
2022-10-12T04:38:59.924Z,6.90
2022-10-12T04:41:29.431Z,6.18
2022-10-12T04:43:57.753Z,5.35
2022-10-12T04:46:27.434Z,7.38
2022-10-12T04:48:55.696Z,5.30
2022-10-12T04:51:24.844Z,6.15
2022-10-12T04:53:53.125Z,7.70
2022-10-12T04:56:21.413Z,7.72
2022-10-12T04:58:49.605Z,6.82
2022-10-12T05:01:17.891Z,6.75
2022-10-12T05:03:48.315Z,6.75
2022-10-12T05:06:16.659Z,6.28
2022-10-12T05:08:44.857Z,5.68
2022-10-12T05:11:13.203Z,8.52
2022-10-12T05:13:41.439Z,6.97
2022-10-12T05:16:09.700Z,6.57
2022-10-12T05:18:38.072Z,8.27
2022-10-12T05:21:07.701Z,7.82
2022-10-12T05:23:35.945Z,6.80
2022-10-12T05:26:04.517Z,9.55
2022-10-12T05:28:35.888Z,8.77
2022-10-12T05:31:06.858Z,10.27
2022-10-12T05:33:35.073Z,6.82
2022-10-12T05:36:03.496Z,8.23
2022-10-12T05:38:33.261Z,7.55
2022-10-12T05:41:01.460Z,6.72
2022-10-12T05:43:29.920Z,7.65
2022-10-12T05:45:58.190Z,8.52
2022-10-12T05:48:26.401Z,7.90
2022-10-12T05:50:55.392Z,8.13
2022-10-12T05:53:24.485Z,7.85
2022-10-12T05:55:58.294Z,13.18
2022-10-12T05:58:27.521Z,10.82
2022-10-12T06:00:56.672Z,8.55
2022-10-12T06:03:26.411Z,7.95
2022-10-12T06:05:54.899Z,11.35
2022-10-12T06:08:23.117Z,7.47
2022-10-12T06:10:52.839Z,8.02
2022-10-12T06:13:22.716Z,13.55
2022-10-12T06:15:51.199Z,8.32
2022-10-12T06:18:20.240Z,7.70
2022-10-12T06:20:49.331Z,8.07
2022-10-12T06:23:17.867Z,9.70
2022-10-12T06:25:48.293Z,8.43
2022-10-12T06:28:17.020Z,8.30
2022-10-12T06:30:46.924Z,7.78
2022-10-12T06:33:15.108Z,8.80
2022-10-12T06:35:43.248Z,9.30
2022-10-12T06:38:11.431Z,7.57
2022-10-12T06:40:39.678Z,9.25
2022-10-12T06:43:07.919Z,7.85
2022-10-12T06:45:36.754Z,7.50
2022-10-12T06:48:06.996Z,10.02
2022-10-12T06:50:35.308Z,8.20
2022-10-12T06:53:03.569Z,9.55
2022-10-12T06:55:31.788Z,12.23
2022-10-12T06:57:59.978Z,10.98
2022-10-12T07:00:28.192Z,9.95
2022-10-12T07:02:56.373Z,10.68
2022-10-12T07:05:26.310Z,10.00
2022-10-12T07:07:55.220Z,9.07
2022-10-12T07:10:23.630Z,11.60
2022-10-12T07:12:51.900Z,9.88
2022-10-12T07:15:20.197Z,11.73
2022-10-12T07:17:48.449Z,11.43
2022-10-12T07:20:16.713Z,9.88
2022-10-12T07:22:46.299Z,10.90
2022-10-12T07:25:14.589Z,12.80
2022-10-12T07:27:42.925Z,9.13
2022-10-12T07:30:13.087Z,10.45
2022-10-12T07:32:42.507Z,11.02
2022-10-12T07:35:10.838Z,11.48
2022-10-12T07:37:39.370Z,10.25
2022-10-12T07:40:11.273Z,12.88
2022-10-12T07:42:59.150Z,13.88
2022-10-12T07:45:28.714Z,13.60
2022-10-12T07:47:57.584Z,12.60
2022-10-12T07:50:26.484Z,12.57
2022-10-12T07:52:54.680Z,12.10
2022-10-12T07:55:24.243Z,14.25
2022-10-12T07:57:52.479Z,15.60
2022-10-12T08:00:22.260Z,14.45
2022-10-12T08:02:50.452Z,15.93
2022-10-12T08:05:21.212Z,15.63
2022-10-12T08:07:49.807Z,17.38
2022-10-12T08:10:19.049Z,16.85
2022-10-12T08:12:52.110Z,16.05
2022-10-12T08:15:20.716Z,15.38
2022-10-12T08:17:48.916Z,16.48
2022-10-12T08:20:17.277Z,15.32
2022-10-12T08:22:45.494Z,19.05
2022-10-12T08:25:13.701Z,17.67
2022-10-12T08:27:42.023Z,17.42
2022-10-12T08:30:13.372Z,19.42
2022-10-12T08:32:41.578Z,19.20
2022-10-12T08:35:09.854Z,19.13
2022-10-12T08:37:38.220Z,16.35
2022-10-12T08:40:07.875Z,19.15
2022-10-12T08:42:48.253Z,20.40
2022-10-12T08:45:39.565Z,27.15
2022-10-12T08:48:14.463Z,21.17
2022-10-12T08:50:48.716Z,20.65
2022-10-12T08:53:22.859Z,19.35
2022-10-12T08:55:52.734Z,22.25
2022-10-12T08:58:23.737Z,18.33
2022-10-12T09:00:58.639Z,19.80
2022-10-12T09:03:41.438Z,17.38
2022-10-12T09:06:14.562Z,21.25
2022-10-12T09:08:54.882Z,15.05
2022-10-12T09:11:37.439Z,18.08
2022-10-12T09:14:11.794Z,14.45
2022-10-12T09:16:46.512Z,15.52
2022-10-12T09:19:19.528Z,15.48
2022-10-12T09:21:49.239Z,13.20
2022-10-12T09:24:20.745Z,16.73
2022-10-12T09:26:52.503Z,13.95
2022-10-12T09:29:25.607Z,15.25
2022-10-12T09:32:12.079Z,16.10
2022-10-12T09:34:41.038Z,13.88
2022-10-12T09:37:18.665Z,16.02
2022-10-12T09:39:47.071Z,16.40
2022-10-12T09:42:15.219Z,12.55
2022-10-12T09:44:47.424Z,12.95
2022-10-12T09:47:29.392Z,18.05
2022-10-12T09:49:59.661Z,14.27
2022-10-12T09:52:31.399Z,14.52
2022-10-12T09:55:05.204Z,15.90
2022-10-12T09:57:37.091Z,14.55
2022-10-12T10:00:09.510Z,14.90
2022-10-12T10:02:49.244Z,15.48
2022-10-12T10:05:26.197Z,14.45
2022-10-12T10:07:54.785Z,13.85
2022-10-12T10:10:29.945Z,11.80
2022-10-12T10:13:01.580Z,13.65
2022-10-12T10:15:32.363Z,14.23
2022-10-12T10:18:05.355Z,14.32
2022-10-12T10:20:37.422Z,16.50
2022-10-12T10:23:06.278Z,14.20
2022-10-12T10:25:35.287Z,11.85
2022-10-12T10:28:22.488Z,14.40
2022-10-12T10:31:02.802Z,12.23
2022-10-12T10:33:34.026Z,11.83
2022-10-12T10:36:10.101Z,12.60
2022-10-12T10:38:54.742Z,11.35
2022-10-12T10:41:37.024Z,11.77
2022-10-12T10:44:06.826Z,10.30
2022-10-12T10:46:37.806Z,11.85
2022-10-12T10:49:08.477Z,12.13
2022-10-12T10:51:47.853Z,11.05
2022-10-12T10:54:17.864Z,11.27
2022-10-12T10:56:47.769Z,11.27
2022-10-12T10:59:20.296Z,13.30
2022-10-12T11:01:54.169Z,11.32
2022-10-12T11:04:29.532Z,11.77
2022-10-12T11:07:02.875Z,12.70
2022-10-12T11:09:42.115Z,11.88
2022-10-12T11:12:15.368Z,11.38
2022-10-12T11:14:46.389Z,12.88
2022-10-12T11:17:20.812Z,12.35
2022-10-12T11:19:55.180Z,12.10
2022-10-12T11:22:28.913Z,13.55
2022-10-12T11:25:04.398Z,13.23
2022-10-12T11:27:37.548Z,13.32
2022-10-12T11:30:14.442Z,13.05
2022-10-12T11:32:46.366Z,14.10
2022-10-12T11:35:24.617Z,13.52
2022-10-12T11:37:56.871Z,12.38
2022-10-12T11:43:22.245Z,13.07
2022-10-12T11:45:54.337Z,14.77
2022-10-12T11:48:27.753Z,12.38
2022-10-12T11:51:03.836Z,13.02
2022-10-12T11:53:41.895Z,17.35
2022-10-12T11:56:16.876Z,12.88
2022-10-12T11:59:00.676Z,13.68
2022-10-12T12:01:48.941Z,10.93
2022-10-12T12:04:46.368Z,14.02
2022-10-12T12:07:43.533Z,12.90
2022-10-12T12:10:53.374Z,12.00
2022-10-12T12:13:26.963Z,11.07
2022-10-12T12:16:34.604Z,12.48
2022-10-12T12:19:42.852Z,13.25
2022-10-12T12:22:31.736Z,11.90
2022-10-12T12:25:24.453Z,11.18
2022-10-12T12:27:55.891Z,13.25
2022-10-12T12:30:34.360Z,11.65
2022-10-12T12:33:06.007Z,14.68
2022-10-12T12:35:39.759Z,11.57
2022-10-12T12:38:19.782Z,12.35
2022-10-12T12:41:08.843Z,12.88
2022-10-12T12:44:02.005Z,13.85
2022-10-12T12:47:32.692Z,11.75
2022-10-12T12:49:56.569Z,12.52
2022-10-12T12:52:29.812Z,12.52
2022-10-12T12:55:31.185Z,11.73
2022-10-12T12:58:27.547Z,10.02
2022-10-12T13:01:11.797Z,12.43
2022-10-12T13:04:05.760Z,10.63
2022-10-12T13:07:21.333Z,11.98
2022-10-12T13:10:11.573Z,11.38
2022-10-12T13:12:57.681Z,11.98
2022-10-12T13:15:40.715Z,11.07
2022-10-12T13:18:47.343Z,14.45
2022-10-12T13:21:19.851Z,10.95
2022-10-12T13:23:50.318Z,11.65
2022-10-12T13:26:23.848Z,10.77
2022-10-12T13:28:53.574Z,11.63
2022-10-12T13:31:28.915Z,12.80
2022-10-12T13:34:07.864Z,11.52
2022-10-12T13:36:47.758Z,11.02
2022-10-12T13:39:18.369Z,12.02
2022-10-12T13:41:47.949Z,16.17
2022-10-12T13:44:23.468Z,14.77
2022-10-12T13:46:56.483Z,14.68
2022-10-12T13:49:26.591Z,13.70
2022-10-12T13:51:57.297Z,13.05
2022-10-12T13:54:28.693Z,15.18
2022-10-12T13:59:31.353Z,14.35
2022-10-12T14:02:02.693Z,12.85
2022-10-12T14:07:02.703Z,13.77
2022-10-12T14:09:40.671Z,17.00
2022-10-12T14:12:10.758Z,15.07
2022-10-12T14:14:40.937Z,16.60
2022-10-12T14:17:16.311Z,13.00
2022-10-12T14:19:46.835Z,16.08
2022-10-12T14:22:21.658Z,16.17
2022-10-12T14:24:50.798Z,14.38
2022-10-12T14:27:25.065Z,14.35
2022-10-12T14:29:57.877Z,15.90
2022-10-12T14:32:42.536Z,12.82
2022-10-12T14:35:14.946Z,13.55
2022-10-12T14:37:43.178Z,13.43
2022-10-12T14:40:41.344Z,13.27
2022-10-12T14:43:24.326Z,13.15
2022-10-12T14:45:53.481Z,15.35
2022-10-12T14:48:24.713Z,13.68
2022-10-12T14:50:53.955Z,15.88
2022-10-12T14:53:22.588Z,13.70
2022-10-12T14:55:54.520Z,14.70
2022-10-12T14:58:23.167Z,14.35
2022-10-12T15:00:51.489Z,11.13
2022-10-12T15:03:20.376Z,14.52
2022-10-12T15:05:49.997Z,12.32
2022-10-12T15:08:18.201Z,13.93
2022-10-12T15:10:50.968Z,12.30
2022-10-12T15:13:19.189Z,10.20
2022-10-12T15:15:49.524Z,12.25
2022-10-12T15:18:17.734Z,10.13
2022-10-12T15:20:49.409Z,12.80
2022-10-12T15:23:19.918Z,10.60
2022-10-12T15:25:52.770Z,13.35
2022-10-12T15:28:21.985Z,12.35
2022-10-12T15:31:16.408Z,10.18
2022-10-12T15:33:39.633Z,10.48
2022-10-12T15:36:08.744Z,9.30
2022-10-12T15:38:38.485Z,10.32
2022-10-12T15:41:07.213Z,10.25
2022-10-12T15:43:38.080Z,10.55
2022-10-12T15:46:12.015Z,12.07
2022-10-12T15:48:40.748Z,12.35
2022-10-12T15:51:14.771Z,12.18
2022-10-12T15:53:45.425Z,12.00
2022-10-12T15:56:16.110Z,12.63
2022-10-12T15:58:44.858Z,12.70
2022-10-12T16:01:13.865Z,12.43
2022-10-12T16:03:42.445Z,11.90
2022-10-12T16:06:11.170Z,14.30
2022-10-12T16:08:39.396Z,14.35
2022-10-12T16:11:12.253Z,15.35
2022-10-12T16:13:46.861Z,12.75
2022-10-12T16:16:16.742Z,13.23
2022-10-12T16:18:45.018Z,11.93
2022-10-12T16:21:13.771Z,14.63
2022-10-12T16:23:42.777Z,12.38
2022-10-12T16:26:15.753Z,16.45
2022-10-12T16:28:44.076Z,13.10
2022-10-12T16:31:15.200Z,15.60
2022-10-12T16:33:43.518Z,13.10
2022-10-12T16:36:13.886Z,16.08
2022-10-12T16:38:42.764Z,13.55
2022-10-12T16:41:14.809Z,12.65
2022-10-12T16:43:43.545Z,13.40
2022-10-12T16:46:11.825Z,13.23
2022-10-12T16:48:40.036Z,13.50
2022-10-12T16:51:09.645Z,14.65
2022-10-12T16:53:38.368Z,15.95
2022-10-12T16:56:07.005Z,16.05
2022-10-12T16:58:36.673Z,16.05
2022-10-12T17:01:10.193Z,14.43
2022-10-12T17:03:38.514Z,12.82
2022-10-12T17:06:07.259Z,13.70
2022-10-12T17:08:38.912Z,14.48
2022-10-12T17:11:08.858Z,15.20
2022-10-12T17:13:39.764Z,15.32
2022-10-12T17:16:35.003Z,16.02
2022-10-12T17:19:03.339Z,13.85
2022-10-12T17:21:31.589Z,16.23
2022-10-12T17:24:01.311Z,13.65
2022-10-12T17:26:30.016Z,16.83
2022-10-12T17:28:59.682Z,16.35
2022-10-12T17:31:28.756Z,12.38
2022-10-12T17:33:58.016Z,15.95
2022-10-12T17:36:28.446Z,16.70
2022-10-12T17:38:57.746Z,13.75
2022-10-12T17:41:26.495Z,14.20
2022-10-12T17:43:55.073Z,13.80
2022-10-12T17:46:25.007Z,19.85
2022-10-12T17:48:53.334Z,15.25
2022-10-12T17:51:21.627Z,15.45
2022-10-12T17:53:49.946Z,14.90
2022-10-12T17:56:18.536Z,16.67
2022-10-12T17:58:46.966Z,16.65
2022-10-12T18:01:16.829Z,14.38
2022-10-12T18:03:47.801Z,50.58
2022-10-12T18:06:18.333Z,39.92
2022-10-12T18:08:46.707Z,16.52
2022-10-12T18:11:15.528Z,19.95
2022-10-12T18:13:48.207Z,17.92
2022-10-12T18:16:18.565Z,16.33
2022-10-12T18:18:50.704Z,22.17
2022-10-12T18:21:20.433Z,18.45
2022-10-12T18:23:49.334Z,21.73
2022-10-12T18:26:19.945Z,22.30
2022-10-12T18:28:48.775Z,19.40
2022-10-12T18:31:19.393Z,20.55
2022-10-12T18:33:49.470Z,17.05
2022-10-12T18:36:18.713Z,18.52
2022-10-12T18:38:47.440Z,18.55
2022-10-12T18:41:17.573Z,18.65
2022-10-12T18:43:46.366Z,17.15
2022-10-12T18:46:18.368Z,19.65
2022-10-12T18:48:48.363Z,17.52
2022-10-12T18:51:20.212Z,17.27
2022-10-12T18:53:48.791Z,17.80
2022-10-12T18:56:18.197Z,17.85
2022-10-12T18:58:48.528Z,17.73
2022-10-12T19:01:18.899Z,20.83
2022-10-12T19:03:49.306Z,22.90
2022-10-12T19:06:20.222Z,18.40
2022-10-12T19:08:49.610Z,17.35
2022-10-12T19:11:19.888Z,21.45
2022-10-12T19:13:54.008Z,16.05
2022-10-12T19:16:22.386Z,18.50
2022-10-12T19:18:57.253Z,20.55
2022-10-12T19:21:25.845Z,19.50
2022-10-12T19:23:54.532Z,18.55
2022-10-12T19:26:24.961Z,17.60
2022-10-12T19:28:56.121Z,16.67
2022-10-12T19:31:26.997Z,19.77
2022-10-12T19:33:58.042Z,15.13
2022-10-12T19:36:27.281Z,16.05
2022-10-12T19:38:56.797Z,17.45
2022-10-12T19:41:25.484Z,14.90
2022-10-12T19:43:55.004Z,18.50
2022-10-12T19:46:23.302Z,16.95
2022-10-12T19:48:53.548Z,17.65
2022-10-12T19:51:25.324Z,16.33
2022-10-12T19:53:55.233Z,17.17
2022-10-12T19:56:24.172Z,18.92
2022-10-12T19:58:55.384Z,19.02
2022-10-12T20:01:25.276Z,13.60
2022-10-12T20:03:56.137Z,15.55
2022-10-12T20:06:28.254Z,14.80
2022-10-12T20:08:59.416Z,16.15
2022-10-12T20:11:27.856Z,16.15
2022-10-12T20:13:58.337Z,14.55
2022-10-12T20:16:32.469Z,12.50
2022-10-12T20:19:02.315Z,17.33
2022-10-12T20:21:32.080Z,17.30
2022-10-12T20:24:00.346Z,16.83
2022-10-12T20:26:29.017Z,17.55
2022-10-12T20:28:57.269Z,16.75
2022-10-12T20:31:27.823Z,16.70
2022-10-12T20:33:58.014Z,17.30
2022-10-12T20:36:28.312Z,18.02
2022-10-12T20:38:58.754Z,15.85
2022-10-12T20:41:28.042Z,16.38
2022-10-12T20:43:57.433Z,15.52
2022-10-12T20:46:26.767Z,14.30
2022-10-12T20:48:59.160Z,15.63
2022-10-12T20:51:29.876Z,16.02
2022-10-12T20:54:01.139Z,15.60
2022-10-12T20:56:30.445Z,15.65
2022-10-12T20:59:00.446Z,16.17
2022-10-12T21:01:29.372Z,18.98
2022-10-12T21:03:57.790Z,17.42
2022-10-12T21:06:26.387Z,19.08
2022-10-12T21:08:56.252Z,17.63
2022-10-12T21:11:27.039Z,16.27
2022-10-12T21:13:56.304Z,16.45
2022-10-12T21:16:24.848Z,13.23
2022-10-12T21:18:55.483Z,15.20
2022-10-12T21:21:24.118Z,18.50
2022-10-12T21:23:54.653Z,12.10
2022-10-12T21:26:26.392Z,11.68
2022-10-12T21:28:54.999Z,10.45
2022-10-12T21:31:27.118Z,10.07
2022-10-12T21:33:57.848Z,11.18
2022-10-12T21:36:27.570Z,14.43
2022-10-12T21:38:55.964Z,11.50
2022-10-12T21:41:27.982Z,13.68
2022-10-12T21:43:57.189Z,15.50
2022-10-12T21:46:27.741Z,16.23
2022-10-12T21:48:56.674Z,14.02
2022-10-12T21:51:26.217Z,12.32
2022-10-12T21:53:55.233Z,13.20
2022-10-12T21:56:26.680Z,14.50
2022-10-12T21:58:58.254Z,12.40
2022-10-12T22:03:56.891Z,13.00
2022-10-12T22:06:26.776Z,13.18
2022-10-12T22:08:56.787Z,15.35
2022-10-12T22:11:28.487Z,14.32
2022-10-12T22:13:59.593Z,15.63
2022-10-12T22:16:29.272Z,11.02
2022-10-12T22:18:59.257Z,13.55
2022-10-12T22:21:27.872Z,12.25
2022-10-12T22:23:56.143Z,13.68
2022-10-12T22:26:25.941Z,12.85
2022-10-12T22:28:54.477Z,15.38
2022-10-12T22:31:24.707Z,15.32
2022-10-12T22:33:53.676Z,13.68
2022-10-12T22:36:21.983Z,14.93
2022-10-12T22:38:50.393Z,12.90
2022-10-12T22:41:21.384Z,13.20
2022-10-12T22:43:52.486Z,16.73
2022-10-12T22:46:21.663Z,15.68
2022-10-12T22:48:50.074Z,14.15
2022-10-12T22:51:22.755Z,13.45
2022-10-12T22:53:51.252Z,13.18
2022-10-12T22:56:20.233Z,15.88
2022-10-12T22:58:49.273Z,14.32
2022-10-12T23:01:19.176Z,15.05
2022-10-12T23:03:47.405Z,12.70
2022-10-12T23:06:17.306Z,12.02
2022-10-12T23:08:45.716Z,11.45
2022-10-12T23:11:15.999Z,11.70
2022-10-12T23:13:45.306Z,14.93
2022-10-12T23:16:16.310Z,12.85
2022-10-12T23:18:46.244Z,11.57
2022-10-12T23:21:16.381Z,12.35
2022-10-12T23:23:46.157Z,12.90
2022-10-12T23:26:17.097Z,14.43
2022-10-12T23:28:45.975Z,16.02
2022-10-12T23:31:16.704Z,11.90
2022-10-12T23:33:47.069Z,18.00
2022-10-12T23:36:17.706Z,16.00
2022-10-12T23:38:46.819Z,11.67
2022-10-12T23:41:15.449Z,14.13
2022-10-12T23:43:43.652Z,13.98
2022-10-12T23:46:13.191Z,13.75
2022-10-12T23:48:41.704Z,13.30
2022-10-12T23:51:11.833Z,16.63
2022-10-12T23:53:41.978Z,13.90
2022-10-12T23:56:10.705Z,13.38
2022-10-12T23:58:40.635Z,14.73
